Time;durP1;ratioP1;P1;durP2;ratioP2;P2;SDS_P1;SDS_P2;PMS_P1;PMS_P2;Temp;Humidity;BMP_temperature;BMP_pressure;BME280_temperature;BME280_humidity;BME280_pressure;Samples;Min_cycle;Max_cycle;Signal;HPM_P1;HPM_P2
2022/07/18 00:02:29;;;;;;;;;3.00;3.00;;;;;;;;4981207;28;8848;-77
2022/07/18 00:04:56;;;;;;;;;2.75;2.75;;;;;;;;4979371;28;8908;-78
2022/07/18 00:07:24;;;;;;;;;1.75;1.75;;;;;;;;4963041;28;8892;-78
2022/07/18 00:09:51;;;;;;;;;4.00;4.00;;;;;;;;4981741;28;8891;-78
2022/07/18 00:12:18;;;;;;;;;3.25;3.25;;;;;;;;4984326;28;8874;-77
2022/07/18 00:14:45;;;;;;;;;0.75;0.75;;;;;;;;4983076;28;8877;-78
2022/07/18 00:17:15;;;;;;;;;3.25;3.25;;;;;;;;4980629;28;8883;-77
2022/07/18 00:19:42;;;;;;;;;3.75;3.75;;;;;;;;4980177;28;8860;-78
2022/07/18 00:22:10;;;;;;;;;2.50;2.50;;;;;;;;4979328;28;8911;-77
2022/07/18 00:24:38;;;;;;;;;3.00;3.00;;;;;;;;4981034;28;8857;-77
2022/07/18 00:27:07;;;;;;;;;2.00;2.00;;;;;;;;4981399;28;9372;-78
2022/07/18 00:29:36;;;;;;;;;3.00;3.00;;;;;;;;4981563;28;8849;-77
2022/07/18 00:32:04;;;;;;;;;6.75;3.50;;;;;;;;4981408;28;8864;-77
2022/07/18 00:34:33;;;;;;;;;2.25;2.25;;;;;;;;4982988;28;8905;-76
2022/07/18 00:37:01;;;;;;;;;2.50;2.50;;;;;;;;4979184;28;9091;-77
2022/07/18 00:39:28;;;;;;;;;2.00;2.00;;;;;;;;4975292;28;8869;-77
2022/07/18 00:41:55;;;;;;;;;2.00;2.00;;;;;;;;4978485;28;8861;-77
2022/07/18 00:44:25;;;;;;;;;2.25;2.25;;;;;;;;4981711;28;8866;-77
2022/07/18 00:46:52;;;;;;;;;2.00;2.00;;;;;;;;4982276;28;8911;-78
2022/07/18 00:49:20;;;;;;;;;2.00;2.00;;;;;;;;4978415;28;8889;-77
2022/07/18 00:51:49;;;;;;;;;4.00;4.00;;;;;;;;4980310;28;8873;-78
2022/07/18 00:54:17;;;;;;;;;3.00;3.00;;;;;;;;4983276;28;8885;-77
2022/07/18 00:56:46;;;;;;;;;2.00;2.00;;;;;;;;4979291;28;8893;-77
2022/07/18 00:59:13;;;;;;;;;5.00;4.00;;;;;;;;4980426;28;8873;-77
2022/07/18 01:01:42;;;;;;;;;3.00;3.00;;;;;;;;4979037;28;8856;-77
2022/07/18 01:04:14;;;;;;;;;2.00;2.00;;;;;;;;4981022;28;8881;-77
2022/07/18 01:06:45;;;;;;;;;3.50;2.00;;;;;;;;4976965;28;8897;-77
2022/07/18 01:09:14;;;;;;;;;3.00;3.00;;;;;;;;4979730;28;8983;-77
2022/07/18 01:11:45;;;;;;;;;2.75;2.75;;;;;;;;4981041;28;8861;-78
2022/07/18 01:14:12;;;;;;;;;4.00;4.00;;;;;;;;4980102;28;8893;-77
2022/07/18 01:16:40;;;;;;;;;2.00;2.00;;;;;;;;4980901;28;8845;-77
2022/07/18 01:19:07;;;;;;;;;2.00;2.00;;;;;;;;4979896;28;8888;-78
2022/07/18 01:21:37;;;;;;;;;2.00;2.00;;;;;;;;4965161;28;8876;-77
2022/07/18 01:24:04;;;;;;;;;3.00;3.00;;;;;;;;4980904;28;8904;-77
2022/07/18 01:26:32;;;;;;;;;3.00;3.00;;;;;;;;4981447;28;9632;-78
2022/07/18 01:28:59;;;;;;;;;3.00;3.00;;;;;;;;4980486;28;8858;-78
2022/07/18 01:31:27;;;;;;;;;5.00;4.00;;;;;;;;4975100;28;8851;-78
2022/07/18 01:33:55;;;;;;;;;3.25;3.25;;;;;;;;4978461;28;8889;-77
2022/07/18 01:36:23;;;;;;;;;3.00;3.00;;;;;;;;4967254;28;8940;-78
2022/07/18 01:38:51;;;;;;;;;3.00;3.00;;;;;;;;4982874;28;9025;-78
2022/07/18 01:41:18;;;;;;;;;4.50;3.50;;;;;;;;4984018;28;8865;-78
2022/07/18 01:43:46;;;;;;;;;3.00;3.00;;;;;;;;4986029;28;9000;-78
2022/07/18 01:46:13;;;;;;;;;4.00;4.00;;;;;;;;4980210;28;8880;-77
2022/07/18 01:48:43;;;;;;;;;5.00;4.25;;;;;;;;4986358;28;8909;-78
2022/07/18 01:51:13;;;;;;;;;7.50;5.00;;;;;;;;4986691;28;8907;-79
2022/07/18 01:53:42;;;;;;;;;4.00;2.50;;;;;;;;4968680;28;9741;-78
2022/07/18 01:56:13;;;;;;;;;4.50;3.00;;;;;;;;4985308;28;8883;-78
2022/07/18 01:58:43;;;;;;;;;4.00;4.00;;;;;;;;4981418;28;8895;-78
2022/07/18 02:01:11;;;;;;;;;4.00;3.00;;;;;;;;4986017;28;9217;-77
2022/07/18 02:03:38;;;;;;;;;3.00;3.00;;;;;;;;4983635;28;8997;-77
2022/07/18 02:06:06;;;;;;;;;3.50;3.00;;;;;;;;4981815;28;9056;-78
2022/07/18 02:08:33;;;;;;;;;4.00;4.00;;;;;;;;4982116;28;8861;-77
2022/07/18 02:11:00;;;;;;;;;3.25;3.25;;;;;;;;4984379;28;9012;-78
2022/07/18 02:13:29;;;;;;;;;6.00;4.00;;;;;;;;4986714;28;8877;-78
2022/07/18 02:15:56;;;;;;;;;2.25;2.25;;;;;;;;4984147;28;8905;-77
2022/07/18 02:18:24;;;;;;;;;3.50;3.50;;;;;;;;4985680;28;8923;-77
2022/07/18 02:20:51;;;;;;;;;4.50;3.00;;;;;;;;4981924;28;8869;-78
2022/07/18 02:23:18;;;;;;;;;5.00;5.00;;;;;;;;4985691;28;8893;-78
2022/07/18 02:25:46;;;;;;;;;2.25;2.25;;;;;;;;4985443;28;8881;-78
2022/07/18 02:28:13;;;;;;;;;3.25;3.25;;;;;;;;4981554;28;8861;-78
2022/07/18 02:30:43;;;;;;;;;2.50;2.50;;;;;;;;4980598;28;8810;-78
2022/07/18 02:33:11;;;;;;;;;4.75;4.75;;;;;;;;4982697;28;8881;-78
2022/07/18 02:35:39;;;;;;;;;3.50;3.50;;;;;;;;4981871;28;8865;-78
2022/07/18 02:38:06;;;;;;;;;4.25;4.25;;;;;;;;4983289;28;8873;-78
2022/07/18 02:40:34;;;;;;;;;4.00;4.00;;;;;;;;4984368;28;8874;-78
2022/07/18 02:43:01;;;;;;;;;6.25;5.50;;;;;;;;4983525;28;8902;-78
2022/07/18 02:45:28;;;;;;;;;3.00;3.00;;;;;;;;4967007;28;8889;-78
2022/07/18 02:47:58;;;;;;;;;4.00;4.00;;;;;;;;4981421;28;8911;-78
2022/07/18 02:50:25;;;;;;;;;6.00;4.00;;;;;;;;4979676;28;9039;-78
2022/07/18 02:52:52;;;;;;;;;4.00;4.00;;;;;;;;4984844;28;8885;-79
2022/07/18 02:55:20;;;;;;;;;6.00;6.00;;;;;;;;4984783;28;8968;-78
2022/07/18 02:57:48;;;;;;;;;6.33;6.00;;;;;;;;4983661;28;8877;-78
2022/07/18 03:00:16;;;;;;;;;6.33;6.33;;;;;;;;4980343;28;8970;-78
2022/07/18 03:02:44;;;;;;;;;4.00;4.00;;;;;;;;4984728;28;9062;-78
2022/07/18 03:05:13;;;;;;;;;4.00;4.00;;;;;;;;4985260;28;9361;-78
2022/07/18 03:07:43;;;;;;;;;5.00;5.00;;;;;;;;4983816;28;9076;-78
2022/07/18 03:10:11;;;;;;;;;6.67;5.67;;;;;;;;4985461;28;9031;-78
2022/07/18 03:12:38;;;;;;;;;6.00;4.67;;;;;;;;4967726;28;8979;-78
2022/07/18 03:15:06;;;;;;;;;5.00;5.00;;;;;;;;4984576;28;9086;-79
2022/07/18 03:17:33;;;;;;;;;5.00;5.00;;;;;;;;4983124;28;10168;-79
2022/07/18 03:20:00;;;;;;;;;6.00;4.67;;;;;;;;4985451;28;9210;-79
2022/07/18 03:22:29;;;;;;;;;5.67;5.00;;;;;;;;4984614;28;9013;-78
2022/07/18 03:24:57;;;;;;;;;3.67;3.00;;;;;;;;4980902;28;9203;-79
2022/07/18 03:27:24;;;;;;;;;2.67;2.67;;;;;;;;4983844;28;9109;-79
2022/07/18 03:29:52;;;;;;;;;5.00;5.00;;;;;;;;4984026;28;8994;-78
2022/07/18 03:32:19;;;;;;;;;4.00;4.00;;;;;;;;4984370;28;8987;-78
2022/07/18 03:34:47;;;;;;;;;5.00;4.00;;;;;;;;4966302;28;9058;-77
2022/07/18 03:37:14;;;;;;;;;4.00;4.00;;;;;;;;4984438;28;8897;-77
2022/07/18 03:39:43;;;;;;;;;3.00;3.00;;;;;;;;4983242;28;9121;-77
2022/07/18 03:42:22;;;;;;;;;3.67;3.67;;;;;;;;4983683;28;9133;-78
2022/07/18 03:44:49;;;;;;;;;5.00;5.00;;;;;;;;4983006;28;8976;-77
2022/07/18 03:47:17;;;;;;;;;6.00;5.00;;;;;;;;4982067;28;8873;-77
2022/07/18 03:49:44;;;;;;;;;4.75;3.75;;;;;;;;4977867;28;8951;-78
2022/07/18 03:52:12;;;;;;;;;4.00;4.00;;;;;;;;4983874;28;8885;-77
2022/07/18 03:54:40;;;;;;;;;5.75;4.25;;;;;;;;4984039;28;9620;-77
2022/07/18 03:57:09;;;;;;;;;4.50;3.00;;;;;;;;4980815;28;8865;-77
2022/07/18 03:59:36;;;;;;;;;3.75;3.75;;;;;;;;4982284;28;8892;-77
2022/07/18 04:02:03;;;;;;;;;2.67;1.33;;;;;;;;4980960;28;9697;-77
2022/07/18 04:04:31;;;;;;;;;4.00;4.00;;;;;;;;4983019;28;8985;-78
2022/07/18 04:06:59;;;;;;;;;3.00;3.00;;;;;;;;4980015;28;8879;-77
2022/07/18 04:09:26;;;;;;;;;4.00;4.00;;;;;;;;4982668;28;9075;-78
2022/07/18 04:11:53;;;;;;;;;3.00;3.00;;;;;;;;4983586;28;8872;-78
2022/07/18 04:14:23;;;;;;;;;3.00;3.00;;;;;;;;4979856;28;8877;-78
2022/07/18 04:16:51;;;;;;;;;6.00;4.00;;;;;;;;4982624;28;9076;-78
2022/07/18 04:19:18;;;;;;;;;4.00;4.00;;;;;;;;4983071;28;9030;-78
2022/07/18 04:21:45;;;;;;;;;5.00;3.67;;;;;;;;4980108;28;8969;-78
2022/07/18 04:24:16;;;;;;;;;3.00;3.00;;;;;;;;4980046;28;8960;-78
2022/07/18 04:26:43;;;;;;;;;3.00;3.00;;;;;;;;4960118;28;8850;-78
2022/07/18 04:29:11;;;;;;;;;5.00;4.00;;;;;;;;4982628;28;8891;-78
2022/07/18 04:31:39;;;;;;;;;4.25;4.00;;;;;;;;4981783;28;8846;-78
2022/07/18 04:34:06;;;;;;;;;6.25;4.00;;;;;;;;4982732;28;8881;-78
2022/07/18 04:36:34;;;;;;;;;3.50;3.50;;;;;;;;4978647;28;8881;-79
2022/07/18 04:39:01;;;;;;;;;3.25;3.25;;;;;;;;4976489;28;8891;-79
2022/07/18 04:41:29;;;;;;;;;4.00;4.00;;;;;;;;4980327;28;8886;-80
2022/07/18 04:43:56;;;;;;;;;4.25;4.25;;;;;;;;4963885;28;8881;-79
2022/07/18 04:46:23;;;;;;;;;3.75;3.75;;;;;;;;4982743;28;10601;-80
2022/07/18 04:48:52;;;;;;;;;5.50;5.50;;;;;;;;4980575;28;8901;-80
2022/07/18 04:51:19;;;;;;;;;4.00;4.00;;;;;;;;4976492;28;8907;-79
2022/07/18 04:53:46;;;;;;;;;4.25;4.25;;;;;;;;4982398;28;8934;-79
2022/07/18 04:56:14;;;;;;;;;5.25;4.00;;;;;;;;4976244;28;8931;-79
2022/07/18 04:58:41;;;;;;;;;4.00;4.00;;;;;;;;4978578;28;8871;-79
2022/07/18 05:01:09;;;;;;;;;4.00;4.00;;;;;;;;4974601;28;8839;-79
2022/07/18 05:03:36;;;;;;;;;3.00;3.00;;;;;;;;4978773;28;8861;-79
2022/07/18 05:06:05;;;;;;;;;5.00;5.00;;;;;;;;4981468;28;8881;-80
2022/07/18 05:08:33;;;;;;;;;0.50;0.50;;;;;;;;4981729;28;9999;-79
2022/07/18 05:11:00;;;;;;;;;3.00;2.00;;;;;;;;4961140;28;8916;-78
2022/07/18 05:13:27;;;;;;;;;5.25;4.00;;;;;;;;4981842;28;8881;-79
2022/07/18 05:15:55;;;;;;;;;3.50;3.25;;;;;;;;4982401;28;9675;-80
2022/07/18 05:18:22;;;;;;;;;5.25;5.25;;;;;;;;4978493;28;8912;-82
2022/07/18 05:20:49;;;;;;;;;4.00;4.00;;;;;;;;4965138;28;8928;-79
2022/07/18 05:23:19;;;;;;;;;6.75;4.50;;;;;;;;4981606;28;8881;-80
2022/07/18 05:25:46;;;;;;;;;3.75;3.75;;;;;;;;4982695;28;9031;-82
2022/07/18 05:28:16;;;;;;;;;4.75;3.75;;;;;;;;4977180;28;9663;-81
2022/07/18 05:30:46;;;;;;;;;4.00;4.00;;;;;;;;4963178;28;8944;-83
2022/07/18 05:33:13;;;;;;;;;6.00;5.00;;;;;;;;4961952;28;8892;-79
2022/07/18 05:35:40;;;;;;;;;1.50;1.50;;;;;;;;4979972;28;8901;-76
2022/07/18 05:38:08;;;;;;;;;3.00;3.00;;;;;;;;4960473;28;8866;-75
2022/07/18 05:40:37;;;;;;;;;5.25;3.50;;;;;;;;4947498;28;8879;-76
2022/07/18 05:43:05;;;;;;;;;3.50;3.50;;;;;;;;4978291;28;9662;-75
2022/07/18 05:45:32;;;;;;;;;4.25;4.25;;;;;;;;4980180;28;8884;-75
2022/07/18 05:48:00;;;;;;;;;4.75;3.50;;;;;;;;4979257;28;8901;-75
2022/07/18 05:50:27;;;;;;;;;4.00;4.00;;;;;;;;4978654;28;8875;-76
2022/07/18 05:52:54;;;;;;;;;4.00;4.00;;;;;;;;4981843;28;8893;-75
2022/07/18 05:55:22;;;;;;;;;4.75;4.00;;;;;;;;4977838;28;8871;-75
2022/07/18 05:57:52;;;;;;;;;5.00;5.00;;;;;;;;4960792;28;9746;-75
2022/07/18 06:00:21;;;;;;;;;6.00;5.25;;;;;;;;4978045;28;8985;-77
2022/07/18 06:02:48;;;;;;;;;5.00;5.00;;;;;;;;4981681;28;9044;-76
2022/07/18 06:05:16;;;;;;;;;4.25;4.25;;;;;;;;4981736;28;8877;-75
2022/07/18 06:07:43;;;;;;;;;4.50;4.50;;;;;;;;4977715;28;8903;-74
2022/07/18 06:10:11;;;;;;;;;5.00;5.00;;;;;;;;4980045;28;8856;-73
2022/07/18 06:12:38;;;;;;;;;3.25;3.25;;;;;;;;4981720;28;8873;-73
2022/07/18 06:15:09;;;;;;;;;5.00;5.00;;;;;;;;4980762;28;8869;-72
2022/07/18 06:17:36;;;;;;;;;4.00;4.00;;;;;;;;4981827;28;9003;-72
2022/07/18 06:20:05;;;;;;;;;4.25;4.25;;;;;;;;4981470;28;8873;-73
2022/07/18 06:22:35;;;;;;;;;2.25;2.25;;;;;;;;4985650;28;8878;-72
2022/07/18 06:25:03;;;;;;;;;2.75;2.75;;;;;;;;4979014;28;8944;-73
2022/07/18 06:27:30;;;;;;;;;4.75;4.75;;;;;;;;4980492;28;8869;-74
2022/07/18 06:29:58;;;;;;;;;4.00;4.00;;;;;;;;4980405;28;8873;-73
2022/07/18 06:32:27;;;;;;;;;5.00;3.50;;;;;;;;4984245;28;8864;-73
2022/07/18 06:34:54;;;;;;;;;4.00;4.00;;;;;;;;4984684;28;8889;-72
2022/07/18 06:37:22;;;;;;;;;3.75;3.75;;;;;;;;4982864;28;8889;-72
2022/07/18 06:39:49;;;;;;;;;5.75;5.75;;;;;;;;4986005;28;8893;-73
2022/07/18 06:42:17;;;;;;;;;5.20;4.00;;;;;;;;4984166;28;8869;-73
2022/07/18 06:44:44;;;;;;;;;3.00;3.00;;;;;;;;4984513;28;8891;-73
2022/07/18 06:47:12;;;;;;;;;3.80;3.80;;;;;;;;4981670;28;9658;-74
2022/07/18 06:49:41;;;;;;;;;4.00;4.00;;;;;;;;4983108;28;8853;-73
2022/07/18 06:52:11;;;;;;;;;3.80;3.80;;;;;;;;4985282;28;9671;-72
2022/07/18 06:54:40;;;;;;;;;3.00;3.00;;;;;;;;4983585;28;8881;-72
2022/07/18 06:57:09;;;;;;;;;4.60;4.60;;;;;;;;4984101;28;8866;-72
2022/07/18 06:59:36;;;;;;;;;2.60;2.60;;;;;;;;4984501;28;9044;-73
2022/07/18 07:02:04;;;;;;;;;3.00;3.00;;;;;;;;4983517;28;8844;-73
2022/07/18 07:04:32;;;;;;;;;4.40;4.00;;;;;;;;4985520;28;8873;-72
2022/07/18 07:07:00;;;;;;;;;4.00;4.00;;;;;;;;4982158;28;8912;-77
2022/07/18 07:09:28;;;;;;;;;3.00;3.00;;;;;;;;4979267;28;8958;-77
2022/07/18 07:11:55;;;;;;;;;2.60;2.60;;;;;;;;4979810;28;8909;-79
2022/07/18 07:14:22;;;;;;;;;3.80;3.80;;;;;;;;4979364;28;8883;-79
2022/07/18 07:16:49;;;;;;;;;4.00;4.00;;;;;;;;4957945;28;9259;-76
2022/07/18 07:19:17;;;;;;;;;3.00;2.80;;;;;;;;4982785;28;8889;-80
2022/07/18 07:21:44;;;;;;;;;3.40;3.40;;;;;;;;4982370;28;9023;-79
2022/07/18 07:24:15;;;;;;;;;4.00;4.00;;;;;;;;4980571;28;8903;-77
2022/07/18 07:26:43;;;;;;;;;2.80;2.80;;;;;;;;4980955;28;8875;-83
2022/07/18 07:29:10;;;;;;;;;3.80;3.80;;;;;;;;4979672;28;8877;-76
2022/07/18 07:31:37;;;;;;;;;5.00;3.40;;;;;;;;4982023;28;8869;-80
2022/07/18 07:34:05;;;;;;;;;2.60;2.60;;;;;;;;4980037;28;8888;-79
2022/07/18 07:36:32;;;;;;;;;2.60;2.60;;;;;;;;4974867;28;9024;-77
2022/07/18 07:38:59;;;;;;;;;3.20;3.20;;;;;;;;4957966;28;8881;-76
2022/07/18 07:41:28;;;;;;;;;2.60;2.60;;;;;;;;4979382;28;8913;-76
2022/07/18 07:43:56;;;;;;;;;4.60;1.80;;;;;;;;4978541;28;8940;-75
2022/07/18 07:46:23;;;;;;;;;2.80;2.80;;;;;;;;4980598;28;8903;-75
2022/07/18 07:48:53;;;;;;;;;4.80;3.80;;;;;;;;4977329;28;9717;-78
2022/07/18 07:51:23;;;;;;;;;3.80;3.80;;;;;;;;4980328;28;8873;-77
2022/07/18 07:53:53;;;;;;;;;2.80;2.80;;;;;;;;4978659;28;8873;-76
2022/07/18 07:56:21;;;;;;;;;3.20;3.20;;;;;;;;4979532;28;8877;-77
2022/07/18 07:58:49;;;;;;;;;3.20;2.80;;;;;;;;4981316;28;8906;-81
2022/07/18 08:01:19;;;;;;;;;3.20;3.20;;;;;;;;4980358;28;8829;-80
2022/07/18 08:03:48;;;;;;;;;3.80;2.60;;;;;;;;4981352;28;9639;-78
2022/07/18 08:06:15;;;;;;;;;2.60;2.60;;;;;;;;4982204;28;9010;-79
2022/07/18 08:08:43;;;;;;;;;3.00;3.00;;;;;;;;4979471;28;8881;-78
2022/07/18 08:11:10;;;;;;;;;1.60;1.60;;;;;;;;4963363;28;8888;-79
2022/07/18 08:13:37;;;;;;;;;2.40;2.40;;;;;;;;4962089;28;9659;-78
2022/07/18 08:16:06;;;;;;;;;5.20;4.00;;;;;;;;4982701;28;8887;-78
2022/07/18 08:18:33;;;;;;;;;2.80;2.60;;;;;;;;4979823;28;8857;-78
2022/07/18 08:21:01;;;;;;;;;3.00;3.00;;;;;;;;4981131;28;9644;-78
2022/07/18 08:23:28;;;;;;;;;2.60;0.60;;;;;;;;4982098;28;8907;-76
2022/07/18 08:25:55;;;;;;;;;2.00;2.00;;;;;;;;4980811;28;8904;-78
2022/07/18 08:28:24;;;;;;;;;2.00;2.00;;;;;;;;4980912;28;10143;-76
2022/07/18 08:30:53;;;;;;;;;5.00;3.20;;;;;;;;4979012;28;9518;-77
2022/07/18 08:33:23;;;;;;;;;5.00;3.00;;;;;;;;4977136;28;8861;-77
2022/07/18 08:35:50;;;;;;;;;4.80;3.80;;;;;;;;4978805;28;8880;-79
2022/07/18 08:38:18;;;;;;;;;4.40;3.00;;;;;;;;4980281;28;8875;-76
2022/07/18 08:40:46;;;;;;;;;3.00;3.00;;;;;;;;4978552;28;8875;-76
2022/07/18 08:43:14;;;;;;;;;2.60;2.60;;;;;;;;4977473;28;8914;-77
2022/07/18 08:45:44;;;;;;;;;2.00;2.00;;;;;;;;4981737;28;8883;-84
2022/07/18 08:48:13;;;;;;;;;2.00;2.00;;;;;;;;4981811;28;8874;-78
2022/07/18 08:50:43;;;;;;;;;2.20;2.20;;;;;;;;4980366;28;8919;-78
2022/07/18 08:53:11;;;;;;;;;3.00;3.00;;;;;;;;4981590;28;8869;-78
2022/07/18 08:55:39;;;;;;;;;2.20;2.20;;;;;;;;4983468;28;9003;-76
2022/07/18 08:58:06;;;;;;;;;3.00;3.00;;;;;;;;4976206;28;8865;-77
2022/07/18 09:00:35;;;;;;;;;2.00;2.00;;;;;;;;4978017;28;8830;-78
2022/07/18 09:03:04;;;;;;;;;3.00;3.00;;;;;;;;4979260;28;8865;-80
2022/07/18 09:05:32;;;;;;;;;2.00;2.00;;;;;;;;4974682;28;8975;-75
2022/07/18 09:08:11;;;;;;;;;3.60;3.60;;;;;;;;4977510;28;8889;-76
2022/07/18 09:10:52;;;;;;;;;2.60;2.60;;;;;;;;4980967;28;8887;-77
2022/07/18 09:13:22;;;;;;;;;3.00;3.00;;;;;;;;4978659;28;8897;-76
2022/07/18 09:16:00;;;;;;;;;3.00;3.00;;;;;;;;4977672;28;8861;-78
2022/07/18 09:18:29;;;;;;;;;2.60;2.00;;;;;;;;4978780;28;8873;-78
2022/07/18 09:21:02;;;;;;;;;3.00;3.00;;;;;;;;4979115;28;8887;-77
2022/07/18 09:23:31;;;;;;;;;2.40;2.40;;;;;;;;4975569;28;8881;-78
2022/07/18 09:26:00;;;;;;;;;1.20;1.20;;;;;;;;4974844;28;8889;-79
2022/07/18 09:28:27;;;;;;;;;4.00;3.20;;;;;;;;4980634;28;8857;-80
2022/07/18 09:30:55;;;;;;;;;5.20;3.40;;;;;;;;4980694;28;8830;-79
2022/07/18 09:33:23;;;;;;;;;3.20;3.20;;;;;;;;4980702;28;10205;-78
2022/07/18 09:35:54;;;;;;;;;3.40;3.40;;;;;;;;4978654;28;8883;-79
2022/07/18 09:38:23;;;;;;;;;3.00;3.00;;;;;;;;4981808;28;8899;-83
2022/07/18 09:40:57;;;;;;;;;1.60;1.60;;;;;;;;4978905;28;8869;-81
2022/07/18 09:43:26;;;;;;;;;4.00;4.00;;;;;;;;4980159;28;8885;-82
2022/07/18 09:45:56;;;;;;;;;2.80;2.80;;;;;;;;4981908;28;8934;-82
2022/07/18 09:48:25;;;;;;;;;2.40;2.40;;;;;;;;4979868;28;8900;-80
2022/07/18 09:50:55;;;;;;;;;3.80;2.20;;;;;;;;4976442;28;8873;-83
2022/07/18 09:53:25;;;;;;;;;2.00;2.00;;;;;;;;4978231;28;9627;-81
2022/07/18 09:55:55;;;;;;;;;4.00;3.80;;;;;;;;4981011;28;8939;-82
2022/07/18 09:58:27;;;;;;;;;3.00;3.00;;;;;;;;4984250;28;8869;-82
2022/07/18 10:01:00;;;;;;;;;2.40;2.40;;;;;;;;4973366;28;8823;-84
2022/07/18 10:03:27;;;;;;;;;2.20;2.20;;;;;;;;4990045;28;8979;-82
2022/07/18 10:05:58;;;;;;;;;3.60;3.20;;;;;;;;4987185;28;8916;-86
2022/07/18 10:08:30;;;;;;;;;2.40;2.40;;;;;;;;4983668;28;8950;-83
2022/07/18 10:11:00;;;;;;;;;1.80;1.80;;;;;;;;4984826;28;9494;-84
2022/07/18 10:13:28;;;;;;;;;2.60;2.60;;;;;;;;4979213;28;8873;-86
2022/07/18 10:15:56;;;;;;;;;2.20;2.20;;;;;;;;4981604;28;8895;-84
2022/07/18 10:18:27;;;;;;;;;2.60;2.60;;;;;;;;4984824;28;8895;-88
2022/07/18 10:24:07;;;;;;;;;2.00;2.00;;;;;;;;4981220;28;8897;-83
2022/07/18 10:26:36;;;;;;;;;3.20;3.20;;;;;;;;4982900;28;8897;-84
2022/07/18 10:29:13;;;;;;;;;2.80;2.80;;;;;;;;4983954;28;8927;-84
2022/07/18 10:31:51;;;;;;;;;2.60;2.20;;;;;;;;4981941;28;8798;-88
2022/07/18 10:34:19;;;;;;;;;0.60;0.60;;;;;;;;4982922;28;8975;-88
2022/07/18 10:37:09;;;;;;;;;3.60;3.60;;;;;;;;4983757;28;8987;-89
2022/07/18 10:39:37;;;;;;;;;2.40;2.40;;;;;;;;4982228;28;8873;-84
2022/07/18 10:42:18;;;;;;;;;3.60;2.00;;;;;;;;4982706;28;8900;-85
2022/07/18 10:44:45;;;;;;;;;3.40;3.00;;;;;;;;4964816;28;8902;-87
2022/07/18 10:47:17;;;;;;;;;4.40;4.40;;;;;;;;4983599;28;8867;-85
2022/07/18 10:50:17;;;;;;;;;3.60;3.60;;;;;;;;4984204;28;9128;-87
2022/07/18 10:53:00;;;;;;;;;3.40;3.00;;;;;;;;4926550;29;9674;-86
2022/07/18 10:55:35;;;;;;;;;2.00;2.00;;;;;;;;4926133;29;8888;-87
2022/07/18 10:58:21;;;;;;;;;3.00;3.00;;;;;;;;4957000;28;8905;-81
2022/07/18 11:00:53;;;;;;;;;2.00;2.00;;;;;;;;4982058;28;8876;-79
2022/07/18 11:03:28;;;;;;;;;2.00;2.00;;;;;;;;4982925;28;8881;-82
2022/07/18 11:05:56;;;;;;;;;2.00;2.00;;;;;;;;4984944;28;8881;-84
2022/07/18 11:08:28;;;;;;;;;3.20;3.20;;;;;;;;4981397;28;8877;-84
2022/07/18 11:11:19;;;;;;;;;2.80;2.80;;;;;;;;4980666;28;8861;-83
2022/07/18 11:13:52;;;;;;;;;3.60;3.60;;;;;;;;4959728;28;8873;-85
2022/07/18 11:16:22;;;;;;;;;3.60;3.60;;;;;;;;4965952;28;8881;-81
2022/07/18 11:19:21;;;;;;;;;4.80;4.00;;;;;;;;4983822;28;8964;-82
2022/07/18 11:21:57;;;;;;;;;1.40;1.40;;;;;;;;4982307;28;8857;-80
2022/07/18 11:24:24;;;;;;;;;3.40;2.60;;;;;;;;4982213;28;8911;-81
2022/07/18 11:26:51;;;;;;;;;2.00;2.00;;;;;;;;4976429;28;9685;-80
2022/07/18 11:29:21;;;;;;;;;4.00;4.00;;;;;;;;4980069;28;8877;-85
2022/07/18 11:31:50;;;;;;;;;2.00;2.00;;;;;;;;4968617;28;8972;-80
2022/07/18 11:34:22;;;;;;;;;2.80;2.00;;;;;;;;4975057;28;8880;-80
2022/07/18 11:36:50;;;;;;;;;1.80;1.80;;;;;;;;4982627;28;8874;-80
2022/07/18 11:39:30;;;;;;;;;3.00;3.00;;;;;;;;4979127;28;8901;-80
2022/07/18 11:41:59;;;;;;;;;2.00;2.00;;;;;;;;4980063;28;8893;-80
2022/07/18 11:44:28;;;;;;;;;1.00;1.00;;;;;;;;4979565;28;8951;-78
2022/07/18 11:47:06;;;;;;;;;2.60;2.60;;;;;;;;4963807;28;8916;-79
2022/07/18 11:49:34;;;;;;;;;2.00;2.00;;;;;;;;4980854;28;8944;-79
2022/07/18 11:52:02;;;;;;;;;2.25;2.00;;;;;;;;4974334;28;8865;-80
2022/07/18 11:54:32;;;;;;;;;1.20;0.80;;;;;;;;4977396;28;8862;-79
2022/07/18 11:57:00;;;;;;;;;1.50;1.50;;;;;;;;4979989;28;9669;-79
2022/07/18 11:59:41;;;;;;;;;1.00;1.00;;;;;;;;4979346;28;9887;-80
2022/07/18 12:02:09;;;;;;;;;3.75;3.00;;;;;;;;4958962;28;8889;-79
2022/07/18 12:04:37;;;;;;;;;5.00;3.00;;;;;;;;4978331;28;8885;-80
2022/07/18 12:07:19;;;;;;;;;1.25;1.25;;;;;;;;4980659;28;9024;-79
2022/07/18 12:09:46;;;;;;;;;1.75;1.75;;;;;;;;4958419;28;8915;-79
2022/07/18 12:12:18;;;;;;;;;2.25;2.25;;;;;;;;4980827;28;8884;-79
2022/07/18 12:14:56;;;;;;;;;1.75;1.75;;;;;;;;4960562;28;10672;-80
2022/07/18 12:17:23;;;;;;;;;1.25;1.25;;;;;;;;4973154;28;9737;-77
2022/07/18 12:19:51;;;;;;;;;2.00;2.00;;;;;;;;4981435;28;8895;-78
2022/07/18 12:22:21;;;;;;;;;2.00;2.00;;;;;;;;4979295;28;8869;-79
2022/07/18 12:24:55;;;;;;;;;1.00;1.00;;;;;;;;4981596;28;8893;-80
2022/07/18 12:27:24;;;;;;;;;2.00;2.00;;;;;;;;4978628;28;9679;-79
2022/07/18 12:30:05;;;;;;;;;2.50;2.50;;;;;;;;4978909;28;9350;-80
2022/07/18 12:32:42;;;;;;;;;2.00;2.00;;;;;;;;4976885;28;8871;-80
2022/07/18 12:35:10;;;;;;;;;1.50;1.50;;;;;;;;4980132;28;8861;-80
2022/07/18 12:37:38;;;;;;;;;2.00;2.00;;;;;;;;4980882;28;8895;-81
2022/07/18 12:40:08;;;;;;;;;1.00;1.00;;;;;;;;4980377;28;10087;-81
2022/07/18 12:42:37;;;;;;;;;2.00;2.00;;;;;;;;4980753;28;9027;-81
2022/07/18 12:45:07;;;;;;;;;2.25;0.75;;;;;;;;4978267;28;9977;-83
2022/07/18 12:47:35;;;;;;;;;2.00;2.00;;;;;;;;4962398;28;9659;-82
2022/07/18 12:50:03;;;;;;;;;2.00;2.00;;;;;;;;4980067;28;8873;-80
2022/07/18 12:52:30;;;;;;;;;1.00;1.00;;;;;;;;4981244;28;8951;-81
2022/07/18 12:54:58;;;;;;;;;2.25;1.25;;;;;;;;4981079;28;8892;-84
2022/07/18 12:57:25;;;;;;;;;3.50;2.25;;;;;;;;4979206;28;8881;-81
2022/07/18 12:59:52;;;;;;;;;1.50;1.50;;;;;;;;4978475;28;8956;-78
2022/07/18 13:02:21;;;;;;;;;1.50;1.50;;;;;;;;4978183;28;8832;-77
2022/07/18 13:04:48;;;;;;;;;1.25;1.25;;;;;;;;4981013;28;8885;-77
2022/07/18 13:07:16;;;;;;;;;2.00;2.00;;;;;;;;4982069;28;8865;-78
2022/07/18 13:09:43;;;;;;;;;1.00;1.00;;;;;;;;4978740;28;8946;-78
2022/07/18 13:12:11;;;;;;;;;1.75;1.75;;;;;;;;4980578;28;8877;-78
2022/07/18 13:14:38;;;;;;;;;2.00;2.00;;;;;;;;4962107;28;9859;-78
2022/07/18 13:17:06;;;;;;;;;2.00;2.00;;;;;;;;4979021;28;8937;-78
2022/07/18 13:19:35;;;;;;;;;1.75;1.75;;;;;;;;4974205;28;8901;-78
2022/07/18 13:22:02;;;;;;;;;2.00;2.00;;;;;;;;4977444;28;9007;-79
2022/07/18 13:24:29;;;;;;;;;1.50;1.50;;;;;;;;4962843;28;8889;-80
2022/07/18 13:26:57;;;;;;;;;3.00;1.00;;;;;;;;4982138;28;9590;-81
2022/07/18 13:29:24;;;;;;;;;0.00;0.00;;;;;;;;4982566;28;9671;-81
2022/07/18 13:31:52;;;;;;;;;1.50;1.50;;;;;;;;4980937;28;9122;-79
2022/07/18 13:34:21;;;;;;;;;1.25;1.25;;;;;;;;4986849;28;8907;-78
2022/07/18 13:36:52;;;;;;;;;1.50;1.50;;;;;;;;4983448;28;8916;-78
2022/07/18 13:39:19;;;;;;;;;1.25;1.25;;;;;;;;4966011;28;8996;-79
2022/07/18 13:41:48;;;;;;;;;2.25;2.25;;;;;;;;4982343;28;8897;-80
2022/07/18 13:44:16;;;;;;;;;1.00;1.00;;;;;;;;4983936;28;9006;-81
2022/07/18 13:46:43;;;;;;;;;2.00;2.00;;;;;;;;4983371;28;8927;-80
2022/07/18 13:49:11;;;;;;;;;1.50;1.50;;;;;;;;4983016;28;9264;-80
2022/07/18 13:51:40;;;;;;;;;0.50;0.50;;;;;;;;4983342;28;8853;-79
2022/07/18 13:54:08;;;;;;;;;1.00;1.00;;;;;;;;4982368;28;8877;-82
2022/07/18 13:56:36;;;;;;;;;2.00;2.00;;;;;;;;4985157;28;8885;-79
2022/07/18 13:59:03;;;;;;;;;1.00;1.00;;;;;;;;4984557;28;8873;-80
2022/07/18 14:01:31;;;;;;;;;2.25;2.25;;;;;;;;4984325;28;8817;-80
2022/07/18 14:03:58;;;;;;;;;3.00;1.50;;;;;;;;4982350;28;8869;-80
2022/07/18 14:06:26;;;;;;;;;2.00;2.00;;;;;;;;4982458;28;8889;-80
2022/07/18 14:08:53;;;;;;;;;1.25;1.25;;;;;;;;4980185;28;9636;-80
2022/07/18 14:11:22;;;;;;;;;1.00;1.00;;;;;;;;4980623;28;8869;-81
2022/07/18 14:13:49;;;;;;;;;1.00;1.00;;;;;;;;4984424;28;8927;-81
2022/07/18 14:16:16;;;;;;;;;1.00;1.00;;;;;;;;4979605;28;8891;-85
2022/07/18 14:18:44;;;;;;;;;1.75;1.75;;;;;;;;4982687;28;8895;-85
2022/07/18 14:21:11;;;;;;;;;1.75;1.75;;;;;;;;4978788;28;8883;-81
2022/07/18 14:23:38;;;;;;;;;1.50;1.50;;;;;;;;4984484;28;8999;-80
2022/07/18 14:26:06;;;;;;;;;2.00;1.50;;;;;;;;4979320;28;9024;-82
2022/07/18 14:28:35;;;;;;;;;2.00;1.75;;;;;;;;4965760;28;8936;-81
2022/07/18 14:31:03;;;;;;;;;1.50;1.50;;;;;;;;4982466;28;8818;-82
2022/07/18 14:33:30;;;;;;;;;1.75;1.75;;;;;;;;4985782;28;9029;-81
2022/07/18 14:35:58;;;;;;;;;1.25;1.25;;;;;;;;4985849;28;8893;-84
2022/07/18 14:38:25;;;;;;;;;1.00;1.00;;;;;;;;4967001;28;9684;-80
2022/07/18 14:40:52;;;;;;;;;1.25;1.25;;;;;;;;4986326;28;8887;-82
2022/07/18 14:43:20;;;;;;;;;1.00;1.00;;;;;;;;4982880;28;8948;-82
2022/07/18 14:45:51;;;;;;;;;3.75;3.00;;;;;;;;4982126;28;8861;-82
2022/07/18 14:48:22;;;;;;;;;0.00;0.00;;;;;;;;4984351;28;8937;-82
2022/07/18 14:50:50;;;;;;;;;2.00;2.00;;;;;;;;4982211;28;8979;-82
2022/07/18 14:53:18;;;;;;;;;1.25;1.25;;;;;;;;4983618;28;8885;-82
2022/07/18 14:55:45;;;;;;;;;3.00;2.00;;;;;;;;4967327;28;8889;-83
2022/07/18 14:58:12;;;;;;;;;2.50;2.00;;;;;;;;4967431;28;8861;-83
2022/07/18 15:00:42;;;;;;;;;1.00;1.00;;;;;;;;4984312;28;8828;-82
2022/07/18 15:03:10;;;;;;;;;1.50;1.50;;;;;;;;4983575;28;8877;-84
2022/07/18 15:05:38;;;;;;;;;1.50;1.50;;;;;;;;4985682;28;8877;-82
2022/07/18 15:08:07;;;;;;;;;2.25;2.25;;;;;;;;4967176;28;9000;-81
2022/07/18 15:10:34;;;;;;;;;2.75;2.75;;;;;;;;4984793;28;8873;-82